Flight Track Log - Related Links

Times and Time Zones

All times are in EDT time to prevent confusion due to time zone crossing. See the GLA61C flight status page for this flight to view local times or setup timezone preferences in your user account.

Time Position Orientation Groundspeed Altitude Reporting Facility
EDT Latitude Longitude Course Direction KTS MPH feet Rate Location/Type
Tue 08:05:58 AM 37.3406 -108.5919 48° Northeast 147 169 8,200  Level Denver Center
Tue 08:06:59 AM 37.3806 -108.5439 44° Northeast 175 201 10,700 1,983 Climbing Denver Center
Tue 08:07:00 AM 37.5413 -108.2875 46° Northeast  Level FlightAware Approximate
Tue 08:07:59 AM 37.4147 -108.4933 50° Northeast 184 212 12,200  Level Denver Center
Tue 08:08:00 AM 37.5908 -108.2230 48° Northeast  Level FlightAware Approximate
Tue 08:09:00 AM 37.6389 -108.1566 48° Northeast  Level FlightAware Approximate
Tue 08:09:00 AM 37.4603 -108.4433 41° Northeast 210 242 13,400  Level Denver Center
Tue 08:10:00 AM 37.6870 -108.0902 48° Northeast  Level FlightAware Approximate
Tue 08:10:00 AM 37.5150 -108.3819 42° Northeast 228 262 15,000  Level Denver Center
Tue 08:11:00 AM 37.7350 -108.0237 48° Northeast  Level FlightAware Approximate
Tue 08:11:00 AM 37.5575 -108.3144 52° Northeast 244 281 16,000  Level Denver Center
Tue 08:12:01 AM 37.6025 -108.2503 48° Northeast 253 291 16,900 1,140 Climbing Denver Center
Tue 08:13:01 AM 37.6583 -108.1744 47° Northeast 260 299 18,300 1,190 Climbing Denver Center
Tue 08:14:02 AM 37.7053 -108.1050 49° Northeast 268 308 19,300 843 Climbing Denver Center
Tue 08:15:02 AM 37.7492 -108.0303 53° Northeast 273 314 20,000 694 Climbing Denver Center
Tue 08:16:03 AM 37.7950 -107.9528 53° Northeast 283 326 20,700 893 Climbing Denver Center
Tue 08:17:03 AM 37.8550 -107.8683 48° Northeast 289 333 21,800 1,041 Climbing Denver Center
Tue 08:18:04 AM 37.9072 -107.7983 47° Northeast 286 329 22,800 893 Climbing Denver Center
Tue 08:19:04 AM 37.9622 -107.7406 40° Northeast 274 315 23,600 744 Climbing Denver Center
Tue 08:20:05 AM 38.0258 -107.6747 39° Northeast 264 304 24,300 689 Climbing Denver Center
Tue 08:21:06 AM 38.0806 -107.6217 37° Northeast 267 307 25,000 347 Climbing Denver Center
Tue 08:22:06 AM 38.1336 -107.5556 44° Northeast 275 316 25,000 -50 Level Denver Center
Tue 08:23:07 AM 38.1853 -107.4633 55° Northeast 284 327 24,900  Descending Denver Center
Tue 08:24:08 AM 38.2267 -107.3811 57° Northeast 287 330 25,000 50 Climbing Denver Center
Tue 08:25:08 AM 38.2669 -107.2975 58° Northeast 290 334 25,000  Level Denver Center
Tue 08:26:09 AM 38.3286 -107.2150 46° Northeast 288 331 25,000  Level Denver Center
Tue 08:27:10 AM 38.3897 -107.1475 41° Northeast 293 337 25,000  Level Denver Center
Tue 08:28:11 AM 38.4400 -107.0650 52° Northeast 295 339 25,000  Level Denver Center
Tue 08:29:11 AM 38.4836 -106.9736 59° Northeast 299 344 25,000  Level Denver Center
Tue 08:30:12 AM 38.5136 -106.8733 69° East 302 348 25,000  Level Denver Center
Tue 08:31:13 AM 38.5478 -106.7739 66° East 305 351 25,000  Level Denver Center
Tue 08:32:14 AM 38.5764 -106.6728 70° East 304 350 25,000  Level Denver Center
Tue 08:33:15 AM 38.6092 -106.5728 67° East 306 352 25,000  Level Denver Center
Tue 08:34:16 AM 38.6431 -106.4731 66° East 306 352 25,000  Level Denver Center
Tue 08:35:16 AM 38.6781 -106.3725 66° East 309 356 25,000  Level Denver Center
Tue 08:36:17 AM 38.7117 -106.2708 67° East 309 356 25,000  Level Denver Center
Tue 08:37:18 AM 38.7539 -106.1564 65° Northeast 313 360 25,000 49 Level Denver Center
Tue 08:38:19 AM 38.7981 -106.0689 57° Northeast 308 354 25,100  Climbing Denver Center
Tue 08:39:20 AM 38.8569 -105.9708 52° Northeast 311 358 25,000 -787 Descending Denver Center
Tue 08:40:21 AM 38.9044 -105.8825 55° Northeast 301 346 23,500 -1,279 Descending Denver Center
Tue 08:41:22 AM 38.9494 -105.8014 54° Northeast 306 352 22,400 -1,377 Descending Denver Center
Tue 08:42:23 AM 39.0058 -105.6972 55° Northeast 315 362 20,700 -1,426 Descending Denver Center
Tue 08:43:24 AM 39.0556 -105.6089 54° Northeast 317 365 19,500 -1,033 Descending Denver Center
Tue 08:44:25 AM 39.1081 -105.5231 52° Northeast 317 365 18,600 -1,289 Descending Denver Center
Tue 08:45:25 AM 39.1711 -105.4328 48° Northeast 312 359 16,900 -1,736 Descending Denver Center
Tue 08:46:26 AM 39.2261 -105.3547 48° Northeast 296 341 15,100 -934 Descending Denver Center
Tue 08:47:27 AM 39.2803 -105.2739 49° Northeast 299 344 15,000 -295 Descending Denver Center
Tue 08:48:28 AM 39.3283 -105.1911 53° Northeast 287 330 14,500 -885 Descending Denver Center
Tue 08:49:29 AM 39.3722 -105.1036 57° Northeast 291 335 13,200 -738 Descending Denver Center
Tue 08:50:30 AM 39.4203 -105.0136 55° Northeast 281 323 13,000 -98 Descending Denver Center
Tue 08:51:31 AM 39.4633 -104.9278 57° Northeast 282 325 13,000 -492 Level Denver Center
Tue 08:52:32 AM 39.5069 -104.8431 56° Northeast 284 327 12,000 -940 Descending Denver Center
Tue 08:53:45 AM 39.5558 -104.7628 52° Northeast 286 329 10,900 -1,299 Descending Denver Center
Tue 08:54:46 AM 39.6358 -104.6972 32° Northeast 277 319 9,100 -1,574 Descending Denver Center
Tue 08:55:47 AM 39.7031 -104.6653 20° North 259 298 7,700 -1,279 Descending Denver Center
Tue 08:56:48 AM 39.7725 -104.6619 North 218 251 6,500 -984 Descending Denver Center
Tue 08:57:49 AM 39.8153 -104.6608 North 158 182 5,700 -590 Descending Denver Center
Tue 08:58:50 AM 39.8456 -104.6608 360° North 103 119 5,300 -393 Descending Denver Center
Tue 09:00:00 AM 39.8500 -104.6667 346° North  Level FlightAware Approximate
Tue 09:07:00 AM 39.8617 -104.6732 346° North  Level Estimated
Tue 09:08:00 AM 39.8617 -104.6732 346° North  Level Estimated
Tue 09:09:00 AM 39.8617 -104.6732 346° North  Level Estimated

Login

Don't have an account? Register now (free) for customized features, flight alerts, and more!